Campo di volo Ploia

IT-0064 · 皮埃蒙特, 意大利

使用的METAR站距离机场53 km。
罗盘
风向 的 风向 的 风向 到 风向 070° Campo di volo Ploia 1/19
风: 3 kt, 1 beaufort

1 kt

3 kt
改变
0 ft 1.000 2.000 3.000 4.000 5.000
Cloud Cloud
FEW 2.000
Cloud Cloud Cloud Cloud
SCT 3.500
METAR LIMJ 180020Z 07003KT 020V140 9999 FEW020 SCT035 17/13 Q1013

METAR Campo di volo Ploia - IT-0064

Campo di volo Ploia是,意大利中的小机场。 该机场位于纬度44,88408和经度8,78134。 该机场有一条跑道: 1/19. 这个机场没有ICAO代码,我们使用IT-0064作为参考。 机场在Milano FIR中。

该航空气象观测是针对Genoa Cristoforo Colombo Airport在2024年5月18日 02:20, 当地时间进行的。

机场观察

风向为070°,速度为3 kt。 风向在020°和140°之间变化。

可见度为10 km 或者更多。

有几云在2.000 ft的高度 和 疏云,零星散落的云朵在3.500 ft的高度。 没有观察到天花板。

温度和风寒是17 °C。 露点为13 °C,相对湿度为77%。 海平面上的气压为1013 hPa (QNH)。

白天

今天,太阳从05:52升起,在20:50降落。 这适用于Campo di volo Ploia,世界夏令时可能有所不同。 当地时间与世界标准时间之间的时差为+2 小时。 夏令时目前正在进行中。

公司介绍

我们没有关于这个机场的公司信息。

体会

到Vliegles.nl去找飞行课程,跳伞和其他飞行体验。 浏览页面,了解Campo di volo Ploia附近所有可用的活动。 你也可以使用搜索功能来寻找你所在地附近的特定飞行课程、跳伞或其他飞行体验。

跑道

Id 标题 侧风 逆风 侧风 %
1/19 009°-189° 3 kt 1 kt 87 %

逆风成分最大的方向会被突出显示,并用于横风计算。 这并不一定意味着这个方向在使用。

乌云

2.000 ft FEW 几云
3.500 ft SCT 疏云,零星散落的云朵

温度 & 天气

温度 17 °C
露点 13 °C
相对湿度 77%
Kp-index 2 (0-9)

白天

日出
05:53 (3:12)
中午
13:21
日落
20:48

小工具

你想在你的网站上有一个关于Campo di volo Ploia的当前航空天气(METAR)的小部件吗?

显示HTML代码
报告变更